createdAt,value
2018-07-01T00:00:04.980Z,100755.27
2018-07-01T00:02:33.043Z,100755.01
2018-07-01T00:05:01.071Z,100757.97
2018-07-01T00:07:29.139Z,100759.91
2018-07-01T00:09:57.193Z,100765.44
2018-07-01T00:12:25.628Z,100764.22
2018-07-01T00:14:53.682Z,100783.07
2018-07-01T00:17:21.777Z,100780.28
2018-07-01T00:19:49.767Z,100781.41
2018-07-01T00:22:17.868Z,100780.14
2018-07-01T00:24:45.907Z,100782.86
2018-07-01T00:27:13.963Z,100782.99
2018-07-01T00:29:41.996Z,100782.14
2018-07-01T00:32:10.196Z,100781.48
2018-07-01T00:34:38.256Z,100780.26
2018-07-01T00:37:06.351Z,100784.60
2018-07-01T00:39:34.406Z,100785.55
2018-07-01T00:42:02.445Z,100780.97
2018-07-01T00:44:30.646Z,100776.16
2018-07-01T00:46:58.680Z,100778.94
2018-07-01T00:49:26.713Z,100775.75
2018-07-01T00:51:54.909Z,100773.55
2018-07-01T00:54:22.971Z,100765.55
2018-07-01T00:56:50.996Z,100771.42
2018-07-01T00:59:19.037Z,100771.41
2018-07-01T01:01:47.070Z,100767.98
2018-07-01T01:04:15.375Z,100769.91
2018-07-01T01:06:43.435Z,100771.83
2018-07-01T01:09:13.183Z,100771.81
2018-07-01T01:11:41.598Z,100768.75
2018-07-01T01:14:09.623Z,100772.06
2018-07-01T01:16:38.074Z,100774.00
2018-07-01T01:19:07.059Z,100768.14
2018-07-01T01:21:35.091Z,100777.81
2018-07-01T01:24:03.203Z,100770.58
2018-07-01T01:26:31.406Z,100780.25
2018-07-01T01:28:59.652Z,100783.00
2018-07-01T01:31:27.679Z,100772.63
2018-07-01T01:33:55.758Z,100785.49
2018-07-01T01:36:24.671Z,100776.16
2018-07-01T01:38:54.303Z,100778.29
2018-07-01T01:42:26.444Z,100779.03
2018-07-01T01:44:58.171Z,100780.95
2018-07-01T01:47:36.499Z,100779.72
2018-07-01T01:50:09.295Z,100774.52
2018-07-01T01:52:42.705Z,100779.66
2018-07-01T01:56:18.739Z,100777.17
2018-07-01T01:59:50.564Z,100789.34
2018-07-01T02:02:36.719Z,100782.44
2018-07-01T02:05:13.396Z,100778.36
2018-07-01T02:07:46.469Z,100774.06
2018-07-01T02:10:14.533Z,100780.42
2018-07-01T02:12:42.574Z,100778.97
2018-07-01T02:15:14.296Z,100777.48
2018-07-01T02:17:44.945Z,100787.26
2018-07-01T02:20:13.658Z,100781.64
2018-07-01T02:23:01.114Z,100782.95
2018-07-01T02:25:31.096Z,100779.53
2018-07-01T02:27:59.168Z,100781.50
2018-07-01T02:30:27.228Z,100785.97
2018-07-01T02:32:55.252Z,100792.09
2018-07-01T02:35:23.612Z,100790.06
2018-07-01T02:37:51.588Z,100798.77
2018-07-01T02:40:19.612Z,100786.49
2018-07-01T02:42:47.664Z,100795.04
2018-07-01T02:45:15.713Z,100802.20
2018-07-01T02:47:43.764Z,100810.30
2018-07-01T02:50:11.824Z,100803.74
2018-07-01T02:52:40.252Z,100802.94
2018-07-01T02:55:08.328Z,100814.23
2018-07-01T02:57:36.387Z,100817.38
2018-07-01T03:00:05.045Z,100822.70
2018-07-01T03:02:33.127Z,100801.48
2018-07-01T03:05:01.153Z,100817.46
2018-07-01T03:07:29.298Z,100817.61
2018-07-01T03:09:57.339Z,100803.39
2018-07-01T03:12:25.465Z,100815.72
2018-07-01T03:14:53.504Z,100812.48
2018-07-01T03:17:21.568Z,100819.00
2018-07-01T03:19:49.895Z,100823.73
2018-07-01T03:22:17.930Z,100823.53
2018-07-01T03:24:45.960Z,100825.66
2018-07-01T03:27:13.985Z,100820.45
2018-07-01T03:29:42.004Z,100825.42
2018-07-01T03:32:10.024Z,100828.19
2018-07-01T03:34:38.082Z,100832.12
2018-07-01T03:37:06.187Z,100833.66
2018-07-01T03:39:34.231Z,100837.23
2018-07-01T03:42:02.276Z,100836.28
2018-07-01T03:44:30.342Z,100838.48
2018-07-01T03:46:58.404Z,100835.12
2018-07-01T03:49:26.431Z,100838.13
2018-07-01T03:51:54.506Z,100838.13
2018-07-01T03:54:22.535Z,100845.06
2018-07-01T03:56:50.569Z,100842.71
2018-07-01T03:59:18.623Z,100841.91
2018-07-01T04:01:46.698Z,100844.33
2018-07-01T04:04:14.708Z,100850.16
2018-07-01T04:06:42.732Z,100849.80
2018-07-01T04:09:12.499Z,100851.63
2018-07-01T04:11:40.887Z,100851.55
2018-07-01T04:14:09.055Z,100849.20
2018-07-01T04:16:37.991Z,100848.47
2018-07-01T04:19:06.039Z,100850.74
2018-07-01T04:21:34.084Z,100849.94
2018-07-01T04:24:02.103Z,100849.78
2018-07-01T04:26:30.143Z,100847.94
2018-07-01T04:28:58.176Z,100846.99
2018-07-01T04:31:26.187Z,100849.28
2018-07-01T04:33:54.227Z,100843.00
2018-07-01T04:36:22.259Z,100846.42
2018-07-01T04:38:50.302Z,100839.41
2018-07-01T04:41:18.312Z,100836.81
2018-07-01T04:43:46.384Z,100831.59
2018-07-01T04:46:14.560Z,100832.21
2018-07-01T04:48:43.271Z,100834.48
2018-07-01T04:51:11.687Z,100840.53
2018-07-01T04:53:39.716Z,100838.80
2018-07-01T04:56:07.745Z,100834.62
2018-07-01T04:58:35.773Z,100839.59
2018-07-01T05:01:03.824Z,100835.80
2018-07-01T05:03:32.100Z,100837.06
2018-07-01T05:06:00.115Z,100839.33
2018-07-01T05:08:28.136Z,100840.56
2018-07-01T05:10:56.183Z,100845.91
2018-07-01T05:13:24.256Z,100846.11
2018-07-01T05:15:52.328Z,100851.64
2018-07-01T05:18:20.372Z,100857.85
2018-07-01T05:20:48.439Z,100854.98
2018-07-01T05:23:16.499Z,100852.73
2018-07-01T05:25:44.531Z,100855.20
2018-07-01T05:28:12.608Z,100855.81
2018-07-01T05:30:40.676Z,100852.48
2018-07-01T05:33:08.731Z,100848.40
2018-07-01T05:35:36.759Z,100858.09
2018-07-01T05:38:05.135Z,100853.66
2018-07-01T05:40:33.099Z,100854.39
2018-07-01T05:43:01.136Z,100852.27
2018-07-01T05:45:29.195Z,100855.70
2018-07-01T05:47:57.220Z,100863.05
2018-07-01T05:50:25.267Z,100863.75
2018-07-01T05:52:53.320Z,100849.19
2018-07-01T05:55:21.600Z,100864.92
2018-07-01T05:57:49.859Z,100859.34
2018-07-01T06:00:18.434Z,100863.59
2018-07-01T06:02:46.482Z,100876.83
2018-07-01T06:05:14.519Z,100870.22
2018-07-01T06:07:42.555Z,100874.51
2018-07-01T06:10:10.563Z,100875.77
2018-07-01T06:12:38.623Z,100885.89
2018-07-01T06:15:06.953Z,100891.09
2018-07-01T06:17:34.987Z,100891.73
2018-07-01T06:20:03.042Z,100886.08
2018-07-01T06:22:31.095Z,100889.80
2018-07-01T06:24:59.125Z,100885.70
2018-07-01T06:27:27.170Z,100880.52
2018-07-01T06:29:55.210Z,100892.22
2018-07-01T06:32:23.263Z,100877.85
2018-07-01T06:34:51.287Z,100883.23
2018-07-01T06:37:19.396Z,100873.61
2018-07-01T06:39:47.427Z,100879.28
2018-07-01T06:42:15.614Z,100869.59
2018-07-01T06:44:43.644Z,100869.59
2018-07-01T06:47:11.651Z,100870.06
2018-07-01T06:49:39.691Z,100862.73
2018-07-01T06:52:07.743Z,100865.80
2018-07-01T06:54:35.799Z,100862.19
2018-07-01T06:57:03.821Z,100855.35
2018-07-01T06:59:31.856Z,100862.95
2018-07-01T07:02:00.261Z,100861.59
2018-07-01T07:04:28.300Z,100864.51
2018-07-01T07:06:56.327Z,100869.30
2018-07-01T07:09:24.364Z,100866.63
2018-07-01T07:11:52.668Z,100882.25
2018-07-01T07:14:20.876Z,100867.16
2018-07-01T07:16:48.911Z,100872.80
2018-07-01T07:19:17.723Z,100873.88
2018-07-01T07:21:45.799Z,100863.53
2018-07-01T07:24:13.840Z,100869.48
2018-07-01T07:26:41.883Z,100864.72
2018-07-01T07:29:09.908Z,100867.05
2018-07-01T07:31:37.936Z,100866.14
2018-07-01T07:34:06.013Z,100860.47
2018-07-01T07:36:34.048Z,100861.19
2018-07-01T07:39:02.072Z,100858.64
2018-07-01T07:41:30.280Z,100856.39
2018-07-01T07:43:58.328Z,100852.07
2018-07-01T07:46:26.364Z,100857.45
2018-07-01T07:48:54.485Z,100865.78
2018-07-01T07:51:22.571Z,100858.55
2018-07-01T07:53:50.588Z,100858.36
2018-07-01T07:56:18.661Z,100864.60
2018-07-01T07:58:46.761Z,100864.60
2018-07-01T08:01:14.898Z,100881.17
2018-07-01T08:03:42.979Z,100867.27
2018-07-01T08:06:11.192Z,100863.97
2018-07-01T08:08:39.416Z,100863.25
2018-07-01T08:11:07.460Z,100866.92
2018-07-01T08:13:35.528Z,100870.91
2018-07-01T08:16:03.628Z,100862.70
2018-07-01T08:18:31.763Z,100871.34
2018-07-01T08:20:59.851Z,100887.86
2018-07-01T08:23:28.000Z,100868.73
2018-07-01T08:25:56.298Z,100875.27
2018-07-01T08:28:24.449Z,100873.09
2018-07-01T08:30:52.508Z,100866.94
2018-07-01T08:33:20.828Z,100862.06
2018-07-01T08:35:52.748Z,100854.23
2018-07-01T08:38:21.128Z,100867.41
2018-07-01T08:40:49.195Z,100850.70
2018-07-01T08:43:17.232Z,100868.05
2018-07-01T08:45:45.311Z,100857.05
2018-07-01T08:48:13.409Z,100866.66
2018-07-01T08:50:42.827Z,100871.59
2018-07-01T08:53:10.852Z,100879.45
2018-07-01T08:55:38.892Z,100867.55
2018-07-01T08:58:06.961Z,100864.30
2018-07-01T09:00:35.028Z,100882.13
2018-07-01T09:03:03.117Z,100873.32
2018-07-01T09:05:31.187Z,100874.23
2018-07-01T09:07:59.208Z,100881.84
2018-07-01T09:10:27.332Z,100875.25
2018-07-01T09:12:55.367Z,100905.98
2018-07-01T09:15:23.399Z,100877.60
2018-07-01T09:17:51.621Z,100873.27
2018-07-01T09:20:19.640Z,100866.83
2018-07-01T09:22:47.671Z,100871.09
2018-07-01T09:25:15.856Z,100859.56
2018-07-01T09:27:43.920Z,100862.73
2018-07-01T09:30:11.933Z,100878.19
2018-07-01T09:32:39.972Z,100875.63
2018-07-01T09:35:07.988Z,100864.30
2018-07-01T09:37:36.020Z,100858.82
2018-07-01T09:40:05.524Z,100861.50
2018-07-01T09:42:34.071Z,100855.13
2018-07-01T09:45:02.424Z,100863.18
2018-07-01T09:47:32.429Z,100861.48
2018-07-01T09:50:00.459Z,100859.45
2018-07-01T09:52:28.538Z,100853.89
2018-07-01T09:54:56.971Z,100894.89
2018-07-01T09:57:25.093Z,100861.08
2018-07-01T09:59:53.131Z,100857.08
2018-07-01T10:02:21.206Z,100856.73
2018-07-01T10:04:49.917Z,100850.38
2018-07-01T10:07:18.052Z,100857.63
2018-07-01T10:09:46.392Z,100853.06
2018-07-01T10:12:14.632Z,100848.22
2018-07-01T10:14:42.900Z,100853.70
2018-07-01T10:17:11.004Z,100847.17
2018-07-01T10:19:39.294Z,100846.09
2018-07-01T10:22:07.483Z,100843.78
2018-07-01T10:24:35.520Z,100849.16
2018-07-01T10:27:03.597Z,100837.13
2018-07-01T10:29:31.675Z,100852.20
2018-07-01T10:32:00.047Z,100846.73
2018-07-01T10:34:28.084Z,100854.58
2018-07-01T10:36:56.208Z,100846.63
2018-07-01T10:39:24.272Z,100831.97
2018-07-01T10:41:52.298Z,100839.61
2018-07-01T10:44:21.033Z,100831.67
2018-07-01T10:46:49.241Z,100843.28
2018-07-01T10:49:17.362Z,100840.41
2018-07-01T10:51:45.553Z,100845.78
2018-07-01T10:54:13.622Z,100838.55
2018-07-01T10:56:41.697Z,100852.05
2018-07-01T10:59:09.743Z,100840.09
2018-07-01T11:01:37.877Z,100837.07
2018-07-01T11:04:06.073Z,100838.04
2018-07-01T11:06:34.331Z,100850.09
2018-07-01T11:09:02.425Z,100835.42
2018-07-01T11:11:30.570Z,100829.95
2018-07-01T11:13:58.739Z,100838.57
2018-07-01T11:16:26.931Z,100825.46
2018-07-01T11:18:54.972Z,100823.64
2018-07-01T11:21:23.073Z,100820.47
2018-07-01T11:23:51.129Z,100821.90
2018-07-01T11:26:19.232Z,100811.53
2018-07-01T11:28:47.293Z,100810.27
2018-07-01T11:31:15.389Z,100818.55
2018-07-01T11:33:43.444Z,100814.48
2018-07-01T11:36:11.601Z,100819.36
2018-07-01T11:38:39.663Z,100811.23
2018-07-01T11:41:07.706Z,100817.66
2018-07-01T11:43:35.779Z,100811.77
2018-07-01T11:46:03.907Z,100809.45
2018-07-01T11:48:32.028Z,100814.19
2018-07-01T11:51:00.072Z,100804.55
2018-07-01T11:53:28.131Z,100813.84
2018-07-01T11:55:56.245Z,100800.47
2018-07-01T11:58:24.295Z,100798.98
2018-07-01T12:00:52.408Z,100795.95
2018-07-01T12:03:20.467Z,100812.03
2018-07-01T12:05:48.535Z,100797.61
2018-07-01T12:08:16.788Z,100808.52
2018-07-01T12:10:44.905Z,100791.35
2018-07-01T12:13:12.969Z,100814.19
2018-07-01T12:15:41.027Z,100779.44
2018-07-01T12:18:09.191Z,100787.94
2018-07-01T12:20:37.355Z,100800.98
2018-07-01T12:23:05.469Z,100775.83
2018-07-01T12:25:33.540Z,100779.14
2018-07-01T12:28:01.716Z,100787.81
2018-07-01T12:30:29.851Z,100770.34
2018-07-01T12:32:58.039Z,100781.20
2018-07-01T12:35:26.096Z,100798.98
2018-07-01T12:37:54.804Z,100769.29
2018-07-01T12:40:22.877Z,100773.36
2018-07-01T12:42:51.037Z,100770.25
2018-07-01T12:45:19.095Z,100771.11
2018-07-01T12:47:50.480Z,100774.00
2018-07-01T12:50:19.412Z,100764.01
2018-07-01T12:52:47.593Z,100770.94
2018-07-01T12:55:15.719Z,100759.24
2018-07-01T12:57:43.829Z,100755.82
2018-07-01T13:00:11.885Z,100773.80
2018-07-01T13:02:40.823Z,100762.05
2018-07-01T13:05:08.901Z,100755.83
2018-07-01T13:07:37.018Z,100763.70
2018-07-01T13:10:05.225Z,100770.49
2018-07-01T13:12:33.276Z,100767.45
2018-07-01T13:15:01.395Z,100754.28
2018-07-01T13:17:30.777Z,100755.23
2018-07-01T13:19:59.372Z,100752.45
2018-07-01T13:22:27.780Z,100744.00
2018-07-01T13:24:55.896Z,100755.49
2018-07-01T13:27:23.981Z,100750.48
2018-07-01T13:29:52.063Z,100730.06
2018-07-01T13:32:20.176Z,100732.86
2018-07-01T13:34:48.225Z,100725.66
2018-07-01T13:37:16.492Z,100721.98
2018-07-01T13:39:44.547Z,100747.70
2018-07-01T13:42:12.604Z,100743.38
2018-07-01T13:44:40.720Z,100727.45
2018-07-01T13:47:09.720Z,100720.23
2018-07-01T13:49:37.775Z,100696.75
2018-07-01T13:52:05.850Z,100711.81
2018-07-01T13:54:33.936Z,100729.47
2018-07-01T13:57:02.071Z,100720.77
2018-07-01T13:59:30.020Z,100715.93
2018-07-01T14:01:58.112Z,100708.12
2018-07-01T14:04:26.197Z,100709.64
2018-07-01T14:06:54.253Z,100714.08
2018-07-01T14:09:22.295Z,100723.84
2018-07-01T14:11:50.339Z,100704.75
2018-07-01T14:14:18.404Z,100699.97
2018-07-01T14:16:46.448Z,100704.23
2018-07-01T14:19:14.849Z,100704.61
2018-07-01T14:21:42.906Z,100700.77
2018-07-01T14:24:11.641Z,100695.36
2018-07-01T14:26:40.159Z,100697.63
2018-07-01T14:29:08.195Z,100697.11
2018-07-01T14:31:36.379Z,100692.75
2018-07-01T14:34:04.455Z,100709.58
2018-07-01T14:36:32.540Z,100696.20
2018-07-01T14:39:00.588Z,100691.17
2018-07-01T14:41:28.608Z,100690.34
2018-07-01T14:43:56.769Z,100686.61
2018-07-01T14:46:24.812Z,100674.85
2018-07-01T14:48:53.100Z,100678.95
2018-07-01T14:51:21.524Z,100692.29
2018-07-01T14:53:49.600Z,100686.48
2018-07-01T14:56:17.700Z,100687.08
2018-07-01T14:58:45.729Z,100669.52
2018-07-01T15:01:13.835Z,100677.61
2018-07-01T15:03:41.862Z,100680.08
2018-07-01T15:06:10.626Z,100682.36
2018-07-01T15:08:39.197Z,100670.83
2018-07-01T15:11:07.606Z,100675.88
2018-07-01T15:13:36.166Z,100682.04
2018-07-01T15:16:04.287Z,100672.98
2018-07-01T15:18:32.436Z,100670.97
2018-07-01T15:21:00.487Z,100683.65
2018-07-01T15:23:28.611Z,100681.02
2018-07-01T15:25:56.760Z,100669.56
2018-07-01T15:28:25.699Z,100673.98
2018-07-01T15:30:54.101Z,100664.20
2018-07-01T15:33:22.137Z,100655.56
2018-07-01T15:35:50.307Z,100657.84
2018-07-01T15:38:18.424Z,100652.78
2018-07-01T15:40:46.484Z,100660.52
2018-07-01T15:43:14.614Z,100655.68
2018-07-01T15:45:42.664Z,100644.59
2018-07-01T15:48:10.687Z,100644.94
2018-07-01T15:50:38.739Z,100640.37
2018-07-01T15:53:06.767Z,100648.71
2018-07-01T15:55:35.048Z,100646.88
2018-07-01T15:58:03.092Z,100641.41
2018-07-01T16:00:31.532Z,100645.47
2018-07-01T16:02:59.563Z,100647.12
2018-07-01T16:05:27.935Z,100635.84
2018-07-01T16:07:56.059Z,100628.38
2018-07-01T16:10:24.144Z,100629.07
2018-07-01T16:12:52.199Z,100574.91
2018-07-01T16:15:20.227Z,100628.46
2018-07-01T16:17:48.323Z,100628.38
2018-07-01T16:20:16.591Z,100629.80
2018-07-01T16:22:44.628Z,100628.23
2018-07-01T16:25:18.127Z,100624.23
2018-07-01T16:27:51.714Z,100631.20
2018-07-01T16:30:19.748Z,100626.02
2018-07-01T16:32:47.803Z,100621.69
2018-07-01T16:35:15.822Z,100628.12
2018-07-01T16:37:43.975Z,100616.95
2018-07-01T16:40:12.071Z,100625.67
2018-07-01T16:42:41.218Z,100609.46
2018-07-01T16:45:09.251Z,100622.59
2018-07-01T16:47:37.376Z,100626.44
2018-07-01T16:50:05.435Z,100619.94
2018-07-01T16:52:33.542Z,100626.70
2018-07-01T16:55:01.487Z,100629.61
2018-07-01T16:57:29.525Z,100623.89
2018-07-01T16:59:58.184Z,100634.35
2018-07-01T17:02:26.312Z,100619.35
2018-07-01T17:04:54.331Z,100619.55
2018-07-01T17:07:22.375Z,100624.80
2018-07-01T17:09:50.436Z,100620.88
2018-07-01T17:12:18.792Z,100617.42
2018-07-01T17:14:46.892Z,100618.06
2018-07-01T17:17:16.977Z,100616.20
2018-07-01T17:19:45.464Z,100617.27
2018-07-01T17:22:14.148Z,100621.64
2018-07-01T17:24:42.439Z,100619.87
2018-07-01T17:27:10.646Z,100620.94
2018-07-01T17:29:38.938Z,100618.20
2018-07-01T17:32:12.646Z,100617.21
2018-07-01T17:34:41.051Z,100623.90
2018-07-01T17:37:09.203Z,100624.25
2018-07-01T17:39:37.401Z,100614.47
2018-07-01T17:42:05.476Z,100613.52
2018-07-01T17:44:34.380Z,100614.47
2018-07-01T17:47:02.439Z,100616.44
2018-07-01T17:49:31.429Z,100615.03
2018-07-01T17:51:59.471Z,100621.25
2018-07-01T17:54:27.846Z,100618.50
2018-07-01T17:56:56.066Z,100615.67
2018-07-01T17:59:24.494Z,100622.02
2018-07-01T18:01:52.560Z,100632.17
2018-07-01T18:04:20.616Z,100624.92
2018-07-01T18:06:48.731Z,100611.14
2018-07-01T18:09:16.886Z,100617.44
2018-07-01T18:11:45.100Z,100613.57
2018-07-01T18:14:13.290Z,100620.31
2018-07-01T18:16:41.440Z,100620.31
2018-07-01T18:19:09.770Z,100615.01
2018-07-01T18:21:42.236Z,100618.33
2018-07-01T18:24:35.140Z,100620.95
2018-07-01T18:26:34.978Z,100623.56
2018-07-01T18:29:10.780Z,100626.13
2018-07-01T18:31:31.620Z,100621.52
2018-07-01T18:33:59.616Z,100620.06
2018-07-01T18:36:27.886Z,100632.41
2018-07-01T18:38:56.036Z,100624.78
2018-07-01T18:41:24.150Z,100624.84
2018-07-01T18:43:53.443Z,100622.75
2018-07-01T18:46:21.487Z,100619.28
2018-07-01T18:48:56.340Z,100625.15
2018-07-01T18:51:24.727Z,100627.77
2018-07-01T18:53:52.775Z,100627.66
2018-07-01T18:56:21.017Z,100628.92
2018-07-01T18:58:49.067Z,100619.77
2018-07-01T19:01:17.557Z,100611.70
2018-07-01T19:03:46.176Z,100481.43
2018-07-01T19:06:16.047Z,100617.27
2018-07-01T19:08:44.736Z,100623.37
2018-07-01T19:11:13.360Z,100626.84
2018-07-01T19:13:42.844Z,100621.71
2018-07-01T19:16:12.004Z,100630.03
2018-07-01T19:18:40.332Z,100631.31
2018-07-01T19:21:09.381Z,100637.41
2018-07-01T19:23:39.615Z,100635.97
2018-07-01T19:26:08.083Z,100638.21
2018-07-01T19:28:36.194Z,100638.42
2018-07-01T19:31:04.243Z,100638.94
2018-07-01T19:33:32.400Z,100643.02
2018-07-01T19:36:00.454Z,100646.70
2018-07-01T19:38:29.181Z,100641.34
2018-07-01T19:40:57.235Z,100644.17
2018-07-01T19:43:25.452Z,100646.28
2018-07-01T19:45:53.541Z,100654.77
2018-07-01T19:48:22.316Z,100651.86
2018-07-01T19:50:50.403Z,100650.92
2018-07-01T19:53:18.543Z,100652.39
2018-07-01T19:55:46.709Z,100650.87
2018-07-01T19:58:14.768Z,100658.95
2018-07-01T20:00:43.077Z,100662.38
2018-07-01T20:03:11.818Z,100663.46
2018-07-01T20:05:41.180Z,100661.91
2018-07-01T20:08:09.369Z,100670.75
2018-07-01T20:10:37.428Z,100665.56
2018-07-01T20:13:05.472Z,100661.61
2018-07-01T20:15:33.583Z,100668.27
2018-07-01T20:18:01.640Z,100663.91
2018-07-01T20:20:29.858Z,100670.13
2018-07-01T20:22:58.094Z,100671.80
2018-07-01T20:25:26.656Z,100676.66
2018-07-01T20:27:54.889Z,100676.70
2018-07-01T20:30:22.944Z,100674.73
2018-07-01T20:32:51.444Z,100674.37
2018-07-01T20:35:19.650Z,100678.20
2018-07-01T20:37:48.028Z,100684.24
2018-07-01T20:40:16.186Z,100686.85
2018-07-01T20:42:44.286Z,100687.28
2018-07-01T20:45:12.337Z,100686.08
2018-07-01T20:47:40.984Z,100685.12
2018-07-01T20:50:09.175Z,100679.37
2018-07-01T20:52:37.307Z,100689.77
2018-07-01T20:55:05.578Z,100687.78
2018-07-01T20:57:33.615Z,100698.59
2018-07-01T21:00:01.732Z,100695.00
2018-07-01T21:02:29.788Z,100692.62
2018-07-01T21:04:57.860Z,100689.84
2018-07-01T21:07:25.903Z,100684.67
2018-07-01T21:09:54.025Z,100691.06
2018-07-01T21:12:22.197Z,100696.70
2018-07-01T21:14:50.345Z,100697.50
2018-07-01T21:17:18.675Z,100690.72
2018-07-01T21:19:46.693Z,100693.10
2018-07-01T21:22:14.738Z,100697.33
2018-07-01T21:24:42.771Z,100704.31
2018-07-01T21:27:10.791Z,100702.52
2018-07-01T21:29:38.828Z,100703.50
2018-07-01T21:32:06.968Z,100702.30
2018-07-01T21:34:34.952Z,100700.31
2018-07-01T21:37:03.004Z,100703.68
2018-07-01T21:39:31.116Z,100705.30
2018-07-01T21:41:59.156Z,100709.48
2018-07-01T21:44:27.284Z,100709.27
2018-07-01T21:46:55.256Z,100707.28
2018-07-01T21:49:23.327Z,100711.23
2018-07-01T21:51:51.408Z,100710.66
2018-07-01T21:54:19.815Z,100712.83
2018-07-01T21:56:48.012Z,100708.83
2018-07-01T21:59:16.203Z,100714.20
2018-07-01T22:01:44.456Z,100712.79
2018-07-01T22:04:12.669Z,100714.92
2018-07-01T22:06:46.103Z,100719.50
2018-07-01T22:09:14.444Z,100715.30
2018-07-01T22:12:00.853Z,100716.67
2018-07-01T22:14:31.140Z,100716.47
2018-07-01T22:16:59.431Z,100716.06
2018-07-01T22:19:27.474Z,100708.66
2018-07-01T22:21:56.267Z,100709.66
2018-07-01T22:24:25.606Z,100709.61
2018-07-01T22:26:53.705Z,100710.80
2018-07-01T22:29:21.788Z,100712.36
2018-07-01T22:31:49.965Z,100718.33
2018-07-01T22:34:19.107Z,100717.69
2018-07-01T22:36:47.939Z,100711.69
2018-07-01T22:39:23.588Z,100719.00
2018-07-01T22:41:52.584Z,100714.61
2018-07-01T22:44:20.749Z,100719.35
2018-07-01T22:46:49.453Z,100713.56
2018-07-01T22:49:17.634Z,100722.30
2018-07-01T22:51:45.823Z,100718.84
2018-07-01T22:54:14.041Z,100719.20
2018-07-01T22:56:42.171Z,100722.77
2018-07-01T22:59:10.292Z,100719.95
2018-07-01T23:03:06.237Z,100719.91
2018-07-01T23:05:34.305Z,100731.77
2018-07-01T23:08:02.348Z,100725.38
2018-07-01T23:10:31.115Z,100723.37
2018-07-01T23:12:59.689Z,100712.78
2018-07-01T23:15:27.735Z,100717.73
2018-07-01T23:17:55.812Z,100716.30
2018-07-01T23:20:23.851Z,100718.86
2018-07-01T23:22:51.906Z,100715.23
2018-07-01T23:25:19.952Z,100718.59
2018-07-01T23:27:48.404Z,100715.97
2018-07-01T23:30:16.473Z,100714.34
2018-07-01T23:32:45.292Z,100714.70
2018-07-01T23:35:13.383Z,100715.25
2018-07-01T23:37:41.659Z,100708.44
2018-07-01T23:40:10.624Z,100712.96
2018-07-01T23:42:39.148Z,100713.09
2018-07-01T23:45:09.516Z,100712.16
2018-07-01T23:47:37.597Z,100718.03
2018-07-01T23:50:06.093Z,100716.13
2018-07-01T23:52:34.177Z,100720.38
2018-07-01T23:55:02.325Z,100721.16
2018-07-01T23:57:30.403Z,100712.23
2018-07-01T23:59:58.451Z,100718.08
